createdAt,value
2023-03-13T00:01:33.621Z,7.70
2023-03-13T00:04:01.920Z,7.50
2023-03-13T00:06:35.965Z,7.30
2023-03-13T00:09:09.931Z,7.30
2023-03-13T00:11:39.352Z,7.50
2023-03-13T00:14:08.303Z,7.60
2023-03-13T00:16:37.749Z,7.70
2023-03-13T00:19:07.328Z,7.70
2023-03-13T00:21:37.812Z,7.60
2023-03-13T00:24:07.543Z,7.60
2023-03-13T00:26:35.648Z,7.50
2023-03-13T00:29:03.654Z,7.50
2023-03-13T00:31:32.950Z,7.50
2023-03-13T00:34:02.633Z,7.50
2023-03-13T00:36:34.189Z,7.50
2023-03-13T00:39:04.754Z,7.50
2023-03-13T00:41:33.852Z,7.50
2023-03-13T00:44:01.955Z,7.50
2023-03-13T00:46:32.516Z,7.60
2023-03-13T00:49:00.424Z,7.70
2023-03-13T00:51:28.894Z,7.70
2023-03-13T00:54:00.600Z,7.80
2023-03-13T00:56:30.016Z,7.80
2023-03-13T00:59:00.609Z,7.90
2023-03-13T01:01:33.800Z,7.80
2023-03-13T01:04:04.943Z,7.80
2023-03-13T01:06:36.228Z,7.60
2023-03-13T01:09:06.453Z,7.60
2023-03-13T01:11:39.521Z,7.50
2023-03-13T01:14:09.022Z,7.40
2023-03-13T01:16:38.974Z,7.40
2023-03-13T01:19:13.480Z,7.50
2023-03-13T01:21:43.155Z,7.60
2023-03-13T01:24:11.132Z,7.60
2023-03-13T01:26:39.998Z,7.60
2023-03-13T01:29:08.605Z,7.60
2023-03-13T01:31:37.425Z,7.50
2023-03-13T01:34:08.978Z,7.50
2023-03-13T01:36:38.022Z,7.50
2023-03-13T01:39:06.642Z,7.50
2023-03-13T01:41:35.364Z,7.40
2023-03-13T01:44:04.023Z,7.30
2023-03-13T01:46:38.082Z,7.20
2023-03-13T01:49:28.240Z,7.20
2023-03-13T01:52:34.436Z,7.20
2023-03-13T01:55:17.867Z,7.20
2023-03-13T01:57:53.257Z,7.10
2023-03-13T02:00:30.736Z,7.10
2023-03-13T02:03:03.944Z,7.10
2023-03-13T02:05:35.025Z,7.10
2023-03-13T02:08:19.122Z,7.10
2023-03-13T02:11:22.012Z,7.10
2023-03-13T02:13:51.737Z,7.10
2023-03-13T02:16:21.486Z,7.00
2023-03-13T02:18:50.516Z,7.00
2023-03-13T02:21:37.113Z,7.00
2023-03-13T02:24:29.351Z,6.90
2023-03-13T02:26:57.357Z,6.80
2023-03-13T02:29:26.333Z,6.80
2023-03-13T02:31:55.955Z,6.80
2023-03-13T02:34:29.888Z,6.80
2023-03-13T02:37:00.810Z,6.80
2023-03-13T02:39:31.402Z,6.80
2023-03-13T02:42:02.076Z,6.70
2023-03-13T02:44:30.323Z,6.70
2023-03-13T02:46:58.284Z,6.60
2023-03-13T02:49:30.195Z,6.70
2023-03-13T02:52:06.259Z,6.80
2023-03-13T02:54:38.720Z,6.90
2023-03-13T02:57:07.879Z,6.80
2023-03-13T02:59:36.007Z,6.70
2023-03-13T03:02:04.538Z,6.50
2023-03-13T03:04:32.645Z,6.30
2023-03-13T03:07:01.031Z,6.30
2023-03-13T03:09:29.612Z,6.40
2023-03-13T03:12:02.609Z,6.40
2023-03-13T03:14:31.276Z,6.30
2023-03-13T03:16:59.361Z,6.30
2023-03-13T03:19:28.247Z,6.30
2023-03-13T03:21:56.821Z,6.40
2023-03-13T03:24:25.053Z,6.50
2023-03-13T03:26:53.002Z,6.50
2023-03-13T03:29:27.940Z,6.50
2023-03-13T03:31:57.110Z,6.60
2023-03-13T03:34:26.496Z,6.70
2023-03-13T03:36:55.304Z,6.60
2023-03-13T03:39:23.361Z,6.50
2023-03-13T03:41:51.948Z,6.50
2023-03-13T03:44:19.913Z,6.40
2023-03-13T03:46:54.671Z,6.40
2023-03-13T03:49:24.415Z,6.50
2023-03-13T03:51:52.567Z,6.50
2023-03-13T03:54:26.988Z,6.50
2023-03-13T03:56:54.993Z,6.50
2023-03-13T03:59:23.121Z,6.40
2023-03-13T04:01:58.361Z,6.40
2023-03-13T04:04:28.933Z,6.50
2023-03-13T04:07:05.020Z,6.60
2023-03-13T04:09:34.386Z,6.50
2023-03-13T04:12:04.753Z,6.50
2023-03-13T04:14:36.609Z,6.60
2023-03-13T04:17:07.684Z,6.50
2023-03-13T04:19:35.982Z,6.40
2023-03-13T04:22:04.281Z,6.50
2023-03-13T04:24:32.719Z,6.40
2023-03-13T04:27:01.812Z,6.40
2023-03-13T04:29:30.391Z,6.50
2023-03-13T04:32:08.145Z,6.40
2023-03-13T04:35:00.345Z,6.40
2023-03-13T04:37:44.110Z,6.50
2023-03-13T04:40:37.623Z,6.50
2023-03-13T04:43:32.319Z,6.50
2023-03-13T04:46:13.077Z,6.40
2023-03-13T04:48:51.075Z,6.40
2023-03-13T04:51:38.060Z,6.40
2023-03-13T04:54:38.677Z,6.30
2023-03-13T04:57:20.086Z,6.20
2023-03-13T05:00:11.597Z,6.10
2023-03-13T05:02:40.094Z,6.00
2023-03-13T05:06:10.940Z,6.00
2023-03-13T05:09:05.864Z,6.10
2023-03-13T05:11:53.651Z,6.10
2023-03-13T05:14:31.654Z,6.10
2023-03-13T05:17:23.497Z,6.20
2023-03-13T05:19:58.459Z,6.30
2023-03-13T05:22:50.139Z,6.20
2023-03-13T05:25:32.935Z,6.20
2023-03-13T05:28:25.140Z,6.10
2023-03-13T05:31:10.320Z,6.10
2023-03-13T05:33:58.727Z,6.10
2023-03-13T05:36:27.019Z,6.10
2023-03-13T05:39:18.983Z,6.00
2023-03-13T05:41:50.110Z,5.80
2023-03-13T05:44:39.542Z,5.80
2023-03-13T05:47:26.727Z,5.90
2023-03-13T05:50:13.267Z,6.00
2023-03-13T05:53:17.267Z,6.30
2023-03-13T05:56:14.621Z,6.50
2023-03-13T05:59:01.822Z,6.90
2023-03-13T06:01:45.592Z,7.30
2023-03-13T06:04:23.579Z,7.80
2023-03-13T06:06:51.668Z,8.10
2023-03-13T06:09:21.053Z,8.10
2023-03-13T06:11:49.358Z,8.00
2023-03-13T06:14:18.465Z,7.80
2023-03-13T06:17:14.124Z,7.40
2023-03-13T06:19:43.360Z,7.50
2023-03-13T06:22:12.083Z,8.10
2023-03-13T06:25:05.813Z,8.70
2023-03-13T06:27:33.748Z,8.70
2023-03-13T06:30:02.537Z,8.40
2023-03-13T06:32:31.892Z,8.30
2023-03-13T06:35:01.156Z,8.30
2023-03-13T06:37:29.112Z,8.70
2023-03-13T06:39:57.095Z,8.60
2023-03-13T06:42:24.987Z,8.90
2023-03-13T06:44:53.907Z,9.10
2023-03-13T06:47:22.317Z,9.70
2023-03-13T06:49:50.634Z,9.50
2023-03-13T06:52:19.464Z,9.40
2023-03-13T06:54:52.829Z,9.80
2023-03-13T06:57:33.121Z,10.00
2023-03-13T07:00:01.107Z,11.00
2023-03-13T07:02:30.675Z,10.60
2023-03-13T07:04:59.013Z,10.90
2023-03-13T07:07:32.164Z,11.30
2023-03-13T07:10:00.872Z,11.90
2023-03-13T07:12:29.236Z,11.80
2023-03-13T07:14:57.228Z,11.60
2023-03-13T07:17:25.229Z,11.60
2023-03-13T07:19:53.218Z,12.00
2023-03-13T07:22:21.662Z,12.30
2023-03-13T07:24:49.865Z,12.10
2023-03-13T07:27:21.078Z,12.50
2023-03-13T07:29:49.956Z,12.40
2023-03-13T07:32:18.583Z,12.20
2023-03-13T07:34:47.084Z,12.30
2023-03-13T07:37:16.841Z,12.50
2023-03-13T07:39:44.909Z,12.60
2023-03-13T07:42:13.227Z,12.70
2023-03-13T07:44:42.857Z,11.80
2023-03-13T07:47:11.625Z,12.20
2023-03-13T07:49:42.848Z,11.90
2023-03-13T07:52:10.749Z,12.80
2023-03-13T07:54:38.652Z,13.50
2023-03-13T07:57:07.062Z,13.70
2023-03-13T07:59:35.421Z,13.70
2023-03-13T08:02:04.597Z,13.70
2023-03-13T08:04:32.580Z,13.60
2023-03-13T08:07:00.982Z,13.70
2023-03-13T08:09:32.612Z,13.90
2023-03-13T08:12:00.591Z,14.10
2023-03-13T08:14:29.113Z,14.50
2023-03-13T08:16:56.992Z,14.30
2023-03-13T08:19:24.976Z,14.30
2023-03-13T08:21:53.073Z,14.70
2023-03-13T08:24:22.019Z,15.10
2023-03-13T08:26:50.082Z,15.70
2023-03-13T08:29:19.072Z,16.50
2023-03-13T08:31:48.837Z,17.20
2023-03-13T08:34:17.978Z,17.60
2023-03-13T08:36:46.537Z,17.00
2023-03-13T08:39:17.211Z,16.70
2023-03-13T08:41:45.245Z,16.10
2023-03-13T08:44:16.795Z,16.10
2023-03-13T08:46:45.128Z,16.80
2023-03-13T08:49:13.793Z,17.70
2023-03-13T08:51:41.779Z,18.40
2023-03-13T08:54:10.165Z,19.10
2023-03-13T08:56:38.937Z,19.20
2023-03-13T08:59:08.004Z,19.30
2023-03-13T09:01:37.182Z,18.70
2023-03-13T09:04:07.795Z,18.60
2023-03-13T09:06:37.505Z,18.40
2023-03-13T09:09:07.358Z,18.70
2023-03-13T09:11:38.374Z,18.90
2023-03-13T09:14:07.724Z,19.00
2023-03-13T09:16:36.561Z,18.80
2023-03-13T09:19:04.982Z,19.30
2023-03-13T09:21:35.344Z,18.80
2023-03-13T09:24:03.831Z,19.30
2023-03-13T09:26:32.317Z,19.50
2023-03-13T09:29:00.493Z,19.50
2023-03-13T09:31:30.652Z,18.90
2023-03-13T09:33:59.950Z,18.60
2023-03-13T09:36:28.799Z,19.30
2023-03-13T09:38:59.010Z,19.60
2023-03-13T09:41:39.085Z,19.90
2023-03-13T09:44:10.300Z,19.90
2023-03-13T09:47:08.606Z,19.70
2023-03-13T09:49:46.002Z,19.70
2023-03-13T09:52:19.837Z,19.90
2023-03-13T09:54:56.884Z,19.20
2023-03-13T09:57:40.369Z,19.40
2023-03-13T10:00:19.923Z,18.80
2023-03-13T10:02:58.246Z,18.60
2023-03-13T10:05:28.656Z,18.80
2023-03-13T10:08:02.191Z,18.40
2023-03-13T10:10:44.563Z,18.60
2023-03-13T10:13:37.079Z,19.00
2023-03-13T10:16:12.156Z,19.10
2023-03-13T10:18:45.003Z,19.30
2023-03-13T10:21:17.043Z,19.10
2023-03-13T10:24:06.305Z,18.80
2023-03-13T10:26:37.259Z,18.50
2023-03-13T10:29:27.485Z,18.60
2023-03-13T10:32:03.534Z,18.70
2023-03-13T10:35:00.678Z,18.80
2023-03-13T10:37:40.162Z,18.50
2023-03-13T10:40:34.918Z,18.30
2023-03-13T10:43:24.972Z,18.80
2023-03-13T10:45:53.213Z,18.70
2023-03-13T10:48:27.564Z,18.50
2023-03-13T10:51:02.276Z,18.80
2023-03-13T10:53:31.396Z,18.90
2023-03-13T10:56:26.503Z,18.90
2023-03-13T10:58:54.855Z,18.80
2023-03-13T11:01:33.791Z,18.90
2023-03-13T11:04:20.561Z,19.10
2023-03-13T11:06:54.823Z,18.90
2023-03-13T11:09:24.571Z,19.00
2023-03-13T11:12:10.629Z,19.00
2023-03-13T11:14:38.528Z,18.90
2023-03-13T11:17:27.772Z,18.60
2023-03-13T11:20:00.192Z,18.40
2023-03-13T11:22:40.037Z,18.70
2023-03-13T11:25:18.196Z,18.70
2023-03-13T11:27:53.760Z,18.70
2023-03-13T11:30:36.869Z,18.70
2023-03-13T11:33:14.100Z,18.60
2023-03-13T11:35:53.401Z,18.80
2023-03-13T11:38:31.994Z,18.90
2023-03-13T11:41:29.160Z,18.90
2023-03-13T11:44:15.636Z,18.90
2023-03-13T11:47:07.796Z,19.10
2023-03-13T11:49:40.824Z,19.30
2023-03-13T11:52:43.792Z,19.40
2023-03-13T11:55:14.878Z,19.40
2023-03-13T11:57:57.217Z,19.50
2023-03-13T12:00:31.558Z,19.40
2023-03-13T12:03:35.262Z,19.30
2023-03-13T12:06:13.207Z,19.50
2023-03-13T12:08:51.039Z,19.50
2023-03-13T12:11:26.595Z,19.50
2023-03-13T12:13:54.792Z,19.40
2023-03-13T12:16:40.774Z,19.40
2023-03-13T12:19:14.059Z,19.40
2023-03-13T12:21:53.693Z,19.30
2023-03-13T12:24:31.214Z,19.40
2023-03-13T12:27:11.109Z,19.50
2023-03-13T12:30:07.507Z,19.60
2023-03-13T12:32:50.741Z,19.70
2023-03-13T12:35:21.534Z,19.70
2023-03-13T12:38:15.673Z,19.60
2023-03-13T12:41:02.738Z,19.50
2023-03-13T12:43:33.993Z,19.30
2023-03-13T12:46:01.997Z,19.30
2023-03-13T12:48:45.583Z,19.30
2023-03-13T12:51:44.916Z,19.50
2023-03-13T12:54:34.578Z,19.50
2023-03-13T12:57:33.910Z,19.50
2023-03-13T13:00:06.988Z,19.50
2023-03-13T13:02:35.592Z,19.60
2023-03-13T13:05:04.323Z,19.50
2023-03-13T13:07:38.255Z,19.70
2023-03-13T13:10:10.133Z,19.80
2023-03-13T13:12:42.673Z,19.70
2023-03-13T13:15:19.518Z,19.70
2023-03-13T13:18:03.117Z,19.70
2023-03-13T13:20:37.974Z,19.70
2023-03-13T13:23:26.106Z,19.80
2023-03-13T13:25:56.629Z,19.70
2023-03-13T13:28:32.571Z,19.70
2023-03-13T13:31:01.975Z,19.80
2023-03-13T13:33:31.126Z,19.70
2023-03-13T13:36:09.108Z,19.90
2023-03-13T13:38:40.448Z,19.90
2023-03-13T13:41:12.268Z,19.90
2023-03-13T13:43:42.932Z,19.90
2023-03-13T13:46:29.411Z,20.00
2023-03-13T13:49:17.298Z,20.00
2023-03-13T13:52:03.946Z,20.10
2023-03-13T13:54:45.576Z,20.00
2023-03-13T13:57:19.817Z,20.00
2023-03-13T14:00:16.412Z,20.00
2023-03-13T14:02:56.359Z,20.00
2023-03-13T14:05:33.250Z,19.90
2023-03-13T14:08:13.801Z,19.90
2023-03-13T14:10:54.871Z,19.80
2023-03-13T14:13:25.013Z,19.90
2023-03-13T14:15:54.461Z,19.90
2023-03-13T14:18:28.425Z,19.80
2023-03-13T14:21:14.232Z,19.70
2023-03-13T14:23:45.202Z,19.70
2023-03-13T14:26:26.971Z,19.70
2023-03-13T14:28:58.382Z,19.80
2023-03-13T14:31:35.272Z,19.90
2023-03-13T14:34:09.754Z,20.00
2023-03-13T14:37:01.457Z,19.90
2023-03-13T14:39:48.775Z,19.70
2023-03-13T14:42:19.112Z,19.50
2023-03-13T14:44:50.345Z,19.60
2023-03-13T14:47:33.184Z,19.70
2023-03-13T14:50:05.044Z,19.70
2023-03-13T14:52:34.203Z,19.70
2023-03-13T14:55:26.026Z,19.70
2023-03-13T14:57:56.555Z,19.70
2023-03-13T15:00:44.738Z,19.70
2023-03-13T15:03:43.244Z,19.70
2023-03-13T15:06:11.181Z,19.60
2023-03-13T15:08:41.847Z,19.50
2023-03-13T15:11:32.289Z,19.50
2023-03-13T15:14:01.148Z,19.50
2023-03-13T15:16:29.727Z,19.60
2023-03-13T15:18:57.873Z,19.60
2023-03-13T15:21:31.228Z,19.50
2023-03-13T15:24:02.553Z,19.40
2023-03-13T15:26:30.735Z,19.30
2023-03-13T15:28:58.694Z,19.30
2023-03-13T15:31:29.213Z,19.20
2023-03-13T15:33:59.734Z,19.20
2023-03-13T15:36:29.545Z,19.10
2023-03-13T15:38:58.008Z,19.30
2023-03-13T15:41:26.143Z,19.20
2023-03-13T15:43:55.535Z,19.30
2023-03-13T15:46:30.715Z,19.20
2023-03-13T15:48:58.757Z,19.30
2023-03-13T15:51:27.905Z,19.20
2023-03-13T15:53:56.129Z,19.10
2023-03-13T15:56:24.461Z,19.10
2023-03-13T15:58:52.490Z,19.10
2023-03-13T16:01:22.519Z,19.00
2023-03-13T16:03:50.812Z,18.90
2023-03-13T16:06:21.538Z,18.90
2023-03-13T16:08:49.719Z,18.90
2023-03-13T16:11:17.992Z,18.80
2023-03-13T16:13:46.050Z,18.80
2023-03-13T16:16:21.515Z,18.80
2023-03-13T16:18:51.070Z,18.70
2023-03-13T16:21:27.640Z,18.70
2023-03-13T16:23:56.106Z,18.60
2023-03-13T16:26:26.840Z,18.70
2023-03-13T16:28:55.610Z,18.70
2023-03-13T16:31:27.782Z,18.60
2023-03-13T16:33:57.301Z,18.50
2023-03-13T16:36:31.327Z,18.30
2023-03-13T16:39:02.276Z,18.20
2023-03-13T16:41:30.438Z,18.10
2023-03-13T16:43:58.595Z,18.00
2023-03-13T16:46:55.581Z,17.90
2023-03-13T16:49:27.253Z,17.90
2023-03-13T16:51:55.200Z,17.80
2023-03-13T16:54:23.183Z,17.70
2023-03-13T16:56:51.253Z,17.60
2023-03-13T16:59:19.764Z,17.50
2023-03-13T17:01:47.638Z,17.40
2023-03-13T17:04:15.805Z,17.40
2023-03-13T17:06:44.890Z,17.30
2023-03-13T17:09:15.861Z,17.20
2023-03-13T17:11:44.453Z,17.10
2023-03-13T17:14:13.665Z,16.90
2023-03-13T17:16:45.842Z,16.80
2023-03-13T17:19:15.049Z,16.80
2023-03-13T17:21:43.452Z,16.70
2023-03-13T17:24:11.528Z,16.50
2023-03-13T17:26:40.255Z,16.30
2023-03-13T17:29:14.539Z,16.20
2023-03-13T17:31:42.575Z,16.10
2023-03-13T17:34:10.873Z,16.10
2023-03-13T17:36:39.721Z,16.00
2023-03-13T17:39:10.614Z,16.00
2023-03-13T17:41:38.869Z,15.90
2023-03-13T17:44:31.845Z,15.90
2023-03-13T17:47:00.387Z,15.80
2023-03-13T17:49:31.092Z,15.70
2023-03-13T17:51:59.078Z,15.60
2023-03-13T17:54:27.428Z,15.50
2023-03-13T17:56:56.530Z,15.40
2023-03-13T17:59:24.866Z,15.40
2023-03-13T18:01:52.863Z,15.30
2023-03-13T18:04:20.910Z,15.30
2023-03-13T18:06:50.531Z,15.30
2023-03-13T18:09:20.933Z,15.20
2023-03-13T18:11:49.881Z,15.20
2023-03-13T18:14:17.834Z,15.10
2023-03-13T18:16:48.383Z,15.00
2023-03-13T18:19:22.801Z,14.90
2023-03-13T18:21:54.351Z,14.70
2023-03-13T18:24:23.437Z,14.50
2023-03-13T18:26:51.533Z,14.40
2023-03-13T18:29:26.048Z,14.30
2023-03-13T18:31:59.008Z,14.20
2023-03-13T18:34:28.375Z,14.10
2023-03-13T18:36:57.095Z,14.00
2023-03-13T18:39:25.030Z,13.90
2023-03-13T18:41:52.953Z,13.80
2023-03-13T18:44:21.319Z,13.80
2023-03-13T18:46:51.294Z,13.80
2023-03-13T18:49:23.575Z,13.80
2023-03-13T18:51:56.397Z,13.80
2023-03-13T18:54:25.177Z,13.60
2023-03-13T18:56:53.511Z,13.50
2023-03-13T18:59:22.847Z,13.40
2023-03-13T19:01:51.368Z,13.20
2023-03-13T19:04:19.997Z,13.10
2023-03-13T19:06:48.668Z,13.00
2023-03-13T19:12:08.674Z,12.90
2023-03-13T19:14:36.668Z,12.90
2023-03-13T19:17:07.346Z,12.90
2023-03-13T19:19:35.339Z,12.90
2023-03-13T19:22:03.852Z,12.80
2023-03-13T19:24:32.221Z,12.70
2023-03-13T19:27:00.114Z,12.50
2023-03-13T19:29:29.267Z,12.40
2023-03-13T19:31:59.315Z,12.40
2023-03-13T19:34:27.358Z,12.40
2023-03-13T19:36:55.532Z,12.30
2023-03-13T19:39:25.731Z,12.20
2023-03-13T19:41:54.040Z,12.20
2023-03-13T19:44:22.470Z,12.10
2023-03-13T19:46:50.637Z,12.10
2023-03-13T19:49:20.803Z,12.00
2023-03-13T19:51:49.579Z,12.00
2023-03-13T19:54:19.324Z,12.00
2023-03-13T19:56:52.382Z,11.90
2023-03-13T19:59:28.978Z,11.80
2023-03-13T20:01:57.058Z,11.80
2023-03-13T20:04:25.567Z,11.70
2023-03-13T20:06:53.551Z,11.60
2023-03-13T20:09:21.639Z,11.60
2023-03-13T20:11:49.718Z,11.50
2023-03-13T20:14:18.077Z,11.40
2023-03-13T20:16:48.985Z,11.30
2023-03-13T20:19:17.651Z,11.20
2023-03-13T20:21:46.760Z,11.30
2023-03-13T20:24:15.186Z,11.30
2023-03-13T20:26:43.013Z,11.30
2023-03-13T20:29:11.442Z,11.30
2023-03-13T20:31:39.939Z,11.30
2023-03-13T20:34:08.371Z,11.30
2023-03-13T20:36:36.297Z,11.30
2023-03-13T20:39:05.721Z,11.30
2023-03-13T20:41:34.337Z,11.30
2023-03-13T20:44:02.597Z,11.30
2023-03-13T20:46:30.570Z,11.30
2023-03-13T20:48:59.096Z,11.30
2023-03-13T20:51:29.105Z,11.30
2023-03-13T20:53:57.606Z,11.20
2023-03-13T20:56:25.612Z,11.20
2023-03-13T20:58:53.484Z,11.20
2023-03-13T21:01:22.488Z,11.20
2023-03-13T21:03:50.868Z,11.20
2023-03-13T21:06:19.619Z,11.20
2023-03-13T21:08:47.587Z,11.20
2023-03-13T21:11:22.120Z,11.20
2023-03-13T21:13:51.600Z,11.20
2023-03-13T21:16:20.140Z,11.10
2023-03-13T21:18:48.855Z,10.90
2023-03-13T21:21:19.350Z,10.60
2023-03-13T21:23:48.243Z,10.50
2023-03-13T21:26:16.240Z,10.40
2023-03-13T21:28:44.307Z,10.50
2023-03-13T21:31:17.667Z,10.40
2023-03-13T21:33:46.013Z,10.30
2023-03-13T21:36:17.446Z,10.30
2023-03-13T21:38:46.131Z,10.20
2023-03-13T21:41:16.564Z,10.20
2023-03-13T21:43:46.471Z,10.10
2023-03-13T21:46:16.945Z,10.20
2023-03-13T21:51:13.785Z,10.10
2023-03-13T21:53:44.556Z,10.00
2023-03-13T21:56:15.816Z,10.00
2023-03-13T21:58:45.619Z,9.90
2023-03-13T22:01:14.940Z,9.90
2023-03-13T22:03:43.740Z,9.90
2023-03-13T22:06:16.668Z,9.90
2023-03-13T22:08:45.390Z,10.00
2023-03-13T22:11:14.088Z,10.00
2023-03-13T22:13:42.547Z,10.00
2023-03-13T22:16:11.602Z,10.00
2023-03-13T22:18:40.957Z,10.00
2023-03-13T22:21:09.215Z,9.90
2023-03-13T22:23:37.151Z,9.90
2023-03-13T22:26:05.632Z,9.70
2023-03-13T22:28:33.736Z,9.60
2023-03-13T22:31:03.069Z,9.50
2023-03-13T22:33:31.603Z,9.30
2023-03-13T22:35:59.627Z,9.30
2023-03-13T22:38:27.853Z,9.30
2023-03-13T22:41:05.014Z,9.20
2023-03-13T22:43:33.760Z,9.20
2023-03-13T22:46:04.595Z,9.10
2023-03-13T22:48:32.767Z,9.00
2023-03-13T22:51:10.326Z,8.90
2023-03-13T22:53:39.957Z,9.00
2023-03-13T22:56:10.105Z,8.90
2023-03-13T22:58:39.009Z,8.90
2023-03-13T23:01:09.173Z,9.00
2023-03-13T23:03:37.098Z,9.10
2023-03-13T23:06:12.982Z,9.10
2023-03-13T23:08:43.546Z,9.10
2023-03-13T23:11:12.181Z,8.90
2023-03-13T23:13:40.848Z,8.90
2023-03-13T23:16:10.933Z,8.90
2023-03-13T23:18:39.707Z,8.80
2023-03-13T23:21:10.719Z,8.80
2023-03-13T23:23:38.812Z,8.80
2023-03-13T23:26:10.648Z,8.70
2023-03-13T23:28:39.809Z,8.70
2023-03-13T23:31:18.830Z,8.60
2023-03-13T23:33:48.036Z,8.50
2023-03-13T23:36:18.486Z,8.50
2023-03-13T23:38:50.111Z,8.50
2023-03-13T23:41:18.793Z,8.60
2023-03-13T23:43:46.940Z,8.60
2023-03-13T23:46:17.396Z,8.60
2023-03-13T23:48:45.279Z,8.70
2023-03-13T23:51:13.334Z,8.60
2023-03-13T23:53:43.256Z,8.60
2023-03-13T23:56:12.738Z,8.40
2023-03-13T23:58:41.580Z,8.30
